createdAt,value
2023-12-03T00:00:37.612Z,1414.00
2023-12-03T00:01:37.604Z,1405.70
2023-12-03T00:02:37.593Z,1405.10
2023-12-03T00:03:37.661Z,1396.40
2023-12-03T00:04:37.631Z,1408.60
2023-12-03T00:05:37.598Z,1410.50
2023-12-03T00:06:38.886Z,1403.30
2023-12-03T00:07:37.597Z,1406.40
2023-12-03T00:08:45.404Z,1413.30
2023-12-03T00:09:38.533Z,1412.40
2023-12-03T00:10:37.479Z,1413.30
2023-12-03T00:11:37.465Z,1418.10
2023-12-03T00:12:37.474Z,1401.70
2023-12-03T00:13:37.473Z,1399.10
2023-12-03T00:14:37.431Z,1362.40
2023-12-03T00:15:37.468Z,1369.90
2023-12-03T00:16:37.411Z,1372.80
2023-12-03T00:17:37.451Z,1370.10
2023-12-03T00:18:37.522Z,1370.80
2023-12-03T00:19:37.411Z,1359.70
2023-12-03T00:20:37.378Z,1366.20
2023-12-03T00:21:37.403Z,1361.40
2023-12-03T00:22:37.438Z,1358.90
2023-12-03T00:23:37.347Z,1366.70
2023-12-03T00:24:37.333Z,1351.90
2023-12-03T00:25:37.313Z,1360.70
2023-12-03T00:26:37.300Z,1366.80
2023-12-03T00:27:37.325Z,1362.80
2023-12-03T00:28:37.288Z,1355.50
2023-12-03T00:29:37.268Z,1351.40
2023-12-03T00:30:37.293Z,1361.40
2023-12-03T00:31:37.255Z,1360.40
2023-12-03T00:32:37.259Z,1361.00
2023-12-03T00:33:37.278Z,1360.20
2023-12-03T00:34:37.221Z,1362.30
2023-12-03T00:35:37.222Z,1355.10
2023-12-03T00:36:37.247Z,1370.90
2023-12-03T00:37:37.261Z,1358.60
2023-12-03T00:38:37.204Z,1361.90
2023-12-03T00:39:37.189Z,1358.20
2023-12-03T00:40:37.156Z,1370.10
2023-12-03T00:41:37.169Z,1352.60
2023-12-03T00:42:37.190Z,1365.90
2023-12-03T00:43:37.126Z,1356.20
2023-12-03T00:44:37.104Z,1365.90
2023-12-03T00:45:37.128Z,1365.20
2023-12-03T00:46:37.100Z,1362.10
2023-12-03T00:47:37.132Z,1371.80
2023-12-03T00:48:37.131Z,1366.40
2023-12-03T00:49:37.645Z,1376.50
2023-12-03T00:50:37.059Z,1362.10
2023-12-03T00:51:37.087Z,1368.50
2023-12-03T00:52:37.018Z,1396.60
2023-12-03T00:53:37.018Z,1418.00
2023-12-03T00:54:37.019Z,1418.90
2023-12-03T00:55:37.039Z,1424.10
2023-12-03T00:56:36.982Z,1420.10
2023-12-03T00:57:37.000Z,1414.50
2023-12-03T00:58:36.957Z,1407.10
2023-12-03T00:59:36.946Z,1416.60
2023-12-03T01:00:37.014Z,1418.80
2023-12-03T01:01:36.929Z,1421.40
2023-12-03T01:02:36.907Z,1422.80
2023-12-03T01:03:36.938Z,1420.90
2023-12-03T01:04:36.931Z,1413.70
2023-12-03T01:05:36.918Z,1412.50
2023-12-03T01:06:36.885Z,1413.20
2023-12-03T01:07:36.878Z,1412.60
2023-12-03T01:08:36.854Z,1415.60
2023-12-03T01:09:36.874Z,1418.40
2023-12-03T01:10:36.847Z,1414.70
2023-12-03T01:11:37.012Z,1417.40
2023-12-03T01:12:36.911Z,1418.00
2023-12-03T01:13:36.845Z,1414.40
2023-12-03T01:14:36.787Z,1418.20
2023-12-03T01:15:36.781Z,1419.00
2023-12-03T01:16:36.761Z,1417.00
2023-12-03T01:17:36.772Z,1423.80
2023-12-03T01:18:36.833Z,1419.60
2023-12-03T01:19:36.833Z,1412.20
2023-12-03T01:20:36.710Z,1418.20
2023-12-03T01:21:36.762Z,1415.40
2023-12-03T01:22:36.705Z,1415.50
2023-12-03T01:23:36.757Z,1415.30
2023-12-03T01:24:36.747Z,1408.60
2023-12-03T01:25:36.678Z,1407.90
2023-12-03T01:26:36.723Z,1424.80
2023-12-03T01:27:36.671Z,1415.10
2023-12-03T01:28:36.646Z,1418.80
2023-12-03T01:29:36.658Z,1413.90
2023-12-03T01:30:36.650Z,1420.40
2023-12-03T01:31:36.605Z,1418.20
2023-12-03T01:32:36.598Z,1418.30
2023-12-03T01:33:36.719Z,1419.80
2023-12-03T01:34:36.607Z,1412.30
2023-12-03T01:35:37.981Z,1415.70
2023-12-03T01:36:36.601Z,1423.70
2023-12-03T01:37:36.536Z,1412.20
2023-12-03T01:38:36.532Z,1415.90
2023-12-03T01:39:36.559Z,1396.60
2023-12-03T01:40:36.498Z,1383.40
2023-12-03T01:41:36.525Z,1380.00
2023-12-03T01:42:36.494Z,1387.00
2023-12-03T01:43:36.504Z,1384.40
2023-12-03T01:44:36.471Z,1381.90
2023-12-03T01:45:36.475Z,1382.30
2023-12-03T01:46:36.666Z,1379.30
2023-12-03T01:47:36.499Z,1383.00
2023-12-03T01:48:36.485Z,1371.60
2023-12-03T01:49:36.505Z,1386.30
2023-12-03T01:50:36.390Z,1384.30
2023-12-03T01:51:36.448Z,1383.10
2023-12-03T01:52:36.397Z,1410.10
2023-12-03T01:53:36.352Z,1403.40
2023-12-03T01:54:36.437Z,1407.00
2023-12-03T01:55:36.348Z,1403.00
2023-12-03T01:56:36.336Z,1411.80
2023-12-03T01:57:36.420Z,1414.70
2023-12-03T01:58:36.304Z,1411.10
2023-12-03T01:59:36.305Z,1407.90
2023-12-03T02:00:39.493Z,1418.10
2023-12-03T02:01:36.633Z,1407.50
2023-12-03T02:02:36.266Z,1374.50
2023-12-03T02:03:36.324Z,1380.60
2023-12-03T02:04:36.257Z,1375.00
2023-12-03T02:05:36.310Z,1373.70
2023-12-03T02:06:36.346Z,1367.80
2023-12-03T02:07:36.214Z,1379.50
2023-12-03T02:08:36.199Z,1374.10
2023-12-03T02:09:36.203Z,1371.40
2023-12-03T02:10:36.234Z,1381.60
2023-12-03T02:11:36.182Z,1373.80
2023-12-03T02:12:36.168Z,1377.60
2023-12-03T02:13:36.147Z,1370.00
2023-12-03T02:14:36.129Z,1367.80
2023-12-03T02:15:36.400Z,1368.10
2023-12-03T02:16:36.111Z,1362.90
2023-12-03T02:17:36.120Z,1368.50
2023-12-03T02:18:36.426Z,1365.80
2023-12-03T02:19:36.110Z,1373.40
2023-12-03T02:20:36.082Z,1367.40
2023-12-03T02:21:36.096Z,1390.70
2023-12-03T02:22:36.042Z,1381.60
2023-12-03T02:23:36.030Z,1382.70
2023-12-03T02:24:36.087Z,1401.70
2023-12-03T02:25:36.034Z,1399.20
2023-12-03T02:26:36.000Z,1394.20
2023-12-03T02:27:36.017Z,1391.20
2023-12-03T02:28:35.970Z,1407.00
2023-12-03T02:29:35.976Z,1385.50
2023-12-03T02:30:35.968Z,1353.20
2023-12-03T02:31:35.937Z,1367.80
2023-12-03T02:32:35.977Z,1335.30
2023-12-03T02:33:35.945Z,1337.10
2023-12-03T02:34:35.951Z,1344.40
2023-12-03T02:35:35.915Z,1332.10
2023-12-03T02:36:35.968Z,1336.00
2023-12-03T02:37:35.881Z,1327.10
2023-12-03T02:38:35.865Z,1331.30
2023-12-03T02:39:35.883Z,1325.20
2023-12-03T02:40:35.845Z,1340.90
2023-12-03T02:41:35.834Z,1336.60
2023-12-03T02:42:35.842Z,1321.10
2023-12-03T02:43:35.843Z,1321.00
2023-12-03T02:44:35.838Z,1314.50
2023-12-03T02:45:35.967Z,1308.30
2023-12-03T02:46:35.777Z,1313.90
2023-12-03T02:47:35.805Z,1304.00
2023-12-03T02:48:35.876Z,1313.70
2023-12-03T02:49:35.816Z,1311.70
2023-12-03T02:50:35.741Z,1307.40
2023-12-03T02:51:35.747Z,1300.90
2023-12-03T02:52:35.710Z,1301.30
2023-12-03T02:53:35.711Z,1311.90
2023-12-03T02:54:35.726Z,1309.50
2023-12-03T02:55:35.676Z,1310.70
2023-12-03T02:56:35.673Z,1310.30
2023-12-03T02:57:35.689Z,1307.70
2023-12-03T02:58:35.663Z,1310.70
2023-12-03T02:59:35.699Z,1319.40
2023-12-03T03:00:35.649Z,1319.90
2023-12-03T03:01:35.645Z,1316.10
2023-12-03T03:02:35.775Z,1316.40
2023-12-03T03:03:35.719Z,1326.20
2023-12-03T03:04:36.160Z,1307.70
2023-12-03T03:05:35.574Z,1305.80
2023-12-03T03:06:35.561Z,1306.10
2023-12-03T03:07:35.572Z,1307.10
2023-12-03T03:08:35.532Z,1290.20
2023-12-03T03:09:35.625Z,1297.00
2023-12-03T03:10:35.523Z,1299.00
2023-12-03T03:11:35.505Z,1301.40
2023-12-03T03:12:35.547Z,1299.60
2023-12-03T03:13:35.487Z,1296.40
2023-12-03T03:14:35.471Z,1305.70
2023-12-03T03:15:35.531Z,1293.40
2023-12-03T03:16:35.514Z,1303.00
2023-12-03T03:17:35.473Z,1296.10
2023-12-03T03:18:35.498Z,1294.10
2023-12-03T03:19:35.530Z,1302.60
2023-12-03T03:20:35.408Z,1308.20
2023-12-03T03:21:35.474Z,1332.10
2023-12-03T03:22:35.389Z,1311.70
2023-12-03T03:23:35.371Z,1295.90
2023-12-03T03:24:35.426Z,1296.30
2023-12-03T03:25:35.350Z,1295.60
2023-12-03T03:26:35.340Z,1314.10
2023-12-03T03:27:35.451Z,1304.60
2023-12-03T03:28:35.316Z,1297.20
2023-12-03T03:29:35.319Z,1310.20
2023-12-03T03:30:35.341Z,1279.20
2023-12-03T03:31:35.480Z,1270.70
2023-12-03T03:32:35.345Z,1281.70
2023-12-03T03:33:35.333Z,1277.40
2023-12-03T03:34:35.343Z,1272.10
2023-12-03T03:35:35.255Z,1306.70
2023-12-03T03:36:35.278Z,1305.20
2023-12-03T03:37:35.217Z,1278.20
2023-12-03T03:38:35.212Z,1299.90
2023-12-03T03:39:35.233Z,1285.00
2023-12-03T03:40:35.198Z,1285.10
2023-12-03T03:41:35.178Z,1291.80
2023-12-03T03:42:35.218Z,1284.70
2023-12-03T03:43:35.158Z,1294.50
2023-12-03T03:44:35.143Z,1305.80
2023-12-03T03:45:35.167Z,1291.80
2023-12-03T03:46:35.119Z,1285.90
2023-12-03T03:47:35.135Z,1279.90
2023-12-03T03:48:35.302Z,1287.40
2023-12-03T03:49:35.148Z,1321.60
2023-12-03T03:50:35.103Z,1304.40
2023-12-03T03:51:35.148Z,1311.90
2023-12-03T03:52:35.063Z,1313.00
2023-12-03T03:53:35.082Z,1300.40
2023-12-03T03:54:35.071Z,1307.80
2023-12-03T03:55:35.131Z,1302.60
2023-12-03T03:56:35.003Z,1309.50
2023-12-03T03:57:35.038Z,1311.50
2023-12-03T03:58:34.987Z,1321.20
2023-12-03T03:59:34.992Z,1322.30
2023-12-03T04:00:34.994Z,1315.90
2023-12-03T04:01:34.976Z,1316.70
2023-12-03T04:02:34.946Z,1312.00
2023-12-03T04:03:35.761Z,1326.70
2023-12-03T04:04:35.022Z,1312.60
2023-12-03T04:05:34.931Z,1308.60
2023-12-03T04:06:34.957Z,1315.20
2023-12-03T04:07:34.934Z,1310.50
2023-12-03T04:08:34.895Z,1306.30
2023-12-03T04:09:34.916Z,1311.50
2023-12-03T04:10:34.859Z,1307.50
2023-12-03T04:11:34.852Z,1300.10
2023-12-03T04:12:34.856Z,1300.60
2023-12-03T04:13:34.899Z,1300.50
2023-12-03T04:14:34.828Z,1302.40
2023-12-03T04:15:34.847Z,1303.70
2023-12-03T04:16:34.810Z,1299.70
2023-12-03T04:17:34.829Z,1300.30
2023-12-03T04:18:37.753Z,1266.00
2023-12-03T04:19:34.858Z,1274.70
2023-12-03T04:20:34.764Z,1270.70
2023-12-03T04:21:34.765Z,1276.00
2023-12-03T04:22:34.749Z,1290.40
2023-12-03T04:23:34.729Z,1276.00
2023-12-03T04:24:34.743Z,1284.80
2023-12-03T04:25:34.695Z,1269.30
2023-12-03T04:26:34.708Z,1284.70
2023-12-03T04:27:34.737Z,1293.60
2023-12-03T04:28:34.668Z,1289.80
2023-12-03T04:29:34.663Z,1283.40
2023-12-03T04:30:34.704Z,1275.80
2023-12-03T04:31:34.649Z,1289.70
2023-12-03T04:32:34.695Z,1287.60
2023-12-03T04:33:34.648Z,1294.20
2023-12-03T04:34:34.639Z,1288.40
2023-12-03T04:35:34.611Z,1294.60
2023-12-03T04:36:34.669Z,1305.40
2023-12-03T04:37:34.578Z,1301.20
2023-12-03T04:38:34.554Z,1305.40
2023-12-03T04:39:34.606Z,1288.50
2023-12-03T04:40:34.530Z,1278.30
2023-12-03T04:41:34.539Z,1294.40
2023-12-03T04:42:34.567Z,1307.20
2023-12-03T04:43:34.515Z,1296.50
2023-12-03T04:44:34.495Z,1287.60
2023-12-03T04:45:34.567Z,1293.00
2023-12-03T04:46:34.495Z,1273.00
2023-12-03T04:47:34.476Z,1280.80
2023-12-03T04:48:34.564Z,1279.00
2023-12-03T04:49:34.451Z,1255.60
2023-12-03T04:50:34.429Z,1277.10
2023-12-03T04:51:34.476Z,1258.60
2023-12-03T04:52:34.410Z,1275.50
2023-12-03T04:53:34.391Z,1267.60
2023-12-03T04:54:34.410Z,1274.90
2023-12-03T04:55:34.407Z,1263.20
2023-12-03T04:56:34.366Z,1258.50
2023-12-03T04:57:34.422Z,1265.50
2023-12-03T04:58:34.338Z,1264.30
2023-12-03T04:59:34.328Z,1287.40
2023-12-03T05:00:34.354Z,1277.00
2023-12-03T05:01:34.353Z,1291.90
2023-12-03T05:02:34.292Z,1270.40
2023-12-03T05:03:34.440Z,1283.40
2023-12-03T05:04:34.266Z,1291.40
2023-12-03T05:05:34.280Z,1304.00
2023-12-03T05:06:34.345Z,1292.80
2023-12-03T05:07:34.457Z,1287.50
2023-12-03T05:08:34.227Z,1303.50
2023-12-03T05:09:34.257Z,1320.30
2023-12-03T05:10:34.225Z,1307.70
2023-12-03T05:11:34.193Z,1309.60
2023-12-03T05:12:34.222Z,1304.30
2023-12-03T05:13:34.168Z,1309.50
2023-12-03T05:14:34.529Z,1321.30
2023-12-03T05:15:34.179Z,1294.20
2023-12-03T05:16:34.143Z,1300.60
2023-12-03T05:17:34.178Z,1303.20
2023-12-03T05:18:34.293Z,1310.70
2023-12-03T05:19:34.280Z,1302.60
2023-12-03T05:20:34.102Z,1311.60
2023-12-03T05:21:34.151Z,1299.70
2023-12-03T05:22:34.089Z,1304.20
2023-12-03T05:23:34.098Z,1302.90
2023-12-03T05:24:34.183Z,1304.20
2023-12-03T05:25:34.050Z,1299.10
2023-12-03T05:26:34.029Z,1303.80
2023-12-03T05:27:34.084Z,1303.70
2023-12-03T05:28:34.042Z,1301.20
2023-12-03T05:29:33.997Z,1297.50
2023-12-03T05:30:34.044Z,1301.80
2023-12-03T05:31:33.978Z,1300.60
2023-12-03T05:32:33.989Z,1306.40
2023-12-03T05:33:34.061Z,1306.30
2023-12-03T05:34:33.999Z,1310.80
2023-12-03T05:35:33.959Z,1297.50
2023-12-03T05:36:33.971Z,1295.40
2023-12-03T05:37:33.918Z,1293.50
2023-12-03T05:38:33.931Z,1299.10
2023-12-03T05:39:33.948Z,1305.50
2023-12-03T05:40:33.886Z,1302.90
2023-12-03T05:41:33.873Z,1309.50
2023-12-03T05:42:33.910Z,1302.60
2023-12-03T05:43:33.866Z,1311.00
2023-12-03T05:44:33.835Z,1301.50
2023-12-03T05:45:33.840Z,1311.10
2023-12-03T05:46:33.812Z,1306.20
2023-12-03T05:47:33.857Z,1308.80
2023-12-03T05:48:33.999Z,1314.50
2023-12-03T05:49:33.855Z,1302.60
2023-12-03T05:50:33.774Z,1296.40
2023-12-03T05:51:33.807Z,1292.30
2023-12-03T05:52:33.781Z,1295.20
2023-12-03T05:53:33.736Z,1301.80
2023-12-03T05:54:33.736Z,1310.70
2023-12-03T05:55:33.757Z,1302.90
2023-12-03T05:56:33.728Z,1310.10
2023-12-03T05:57:33.760Z,1312.50
2023-12-03T05:58:33.685Z,1303.40
2023-12-03T05:59:33.672Z,1305.90
2023-12-03T06:00:33.731Z,1298.20
2023-12-03T06:01:33.712Z,1312.60
2023-12-03T06:02:33.638Z,1295.80
2023-12-03T06:03:33.654Z,1312.30
2023-12-03T06:04:33.675Z,1302.20
2023-12-03T06:05:33.633Z,1299.40
2023-12-03T06:06:33.655Z,1294.40
2023-12-03T06:07:33.635Z,1297.70
2023-12-03T06:08:33.578Z,1300.50
2023-12-03T06:09:33.585Z,1294.40
2023-12-03T06:10:33.568Z,1309.60
2023-12-03T06:11:33.589Z,1287.50
2023-12-03T06:12:33.567Z,1293.10
2023-12-03T06:13:33.515Z,1305.10
2023-12-03T06:14:33.504Z,1294.70
2023-12-03T06:15:33.594Z,1291.70
2023-12-03T06:16:33.504Z,1290.50
2023-12-03T06:17:33.529Z,1292.50
2023-12-03T06:18:33.514Z,1301.60
2023-12-03T06:19:33.457Z,1302.00
2023-12-03T06:20:33.473Z,1293.60
2023-12-03T06:21:33.495Z,1301.40
2023-12-03T06:22:33.423Z,1296.90
2023-12-03T06:23:33.410Z,1291.60
2023-12-03T06:24:33.423Z,1304.70
2023-12-03T06:25:33.402Z,1307.30
2023-12-03T06:26:33.395Z,1296.70
2023-12-03T06:27:33.403Z,1294.00
2023-12-03T06:28:33.366Z,1302.20
2023-12-03T06:29:33.344Z,1298.90
2023-12-03T06:30:33.411Z,1290.80
2023-12-03T06:31:33.323Z,1299.50
2023-12-03T06:32:33.385Z,1299.60
2023-12-03T06:33:33.382Z,1296.20
2023-12-03T06:34:33.324Z,1299.80
2023-12-03T06:35:33.287Z,1292.70
2023-12-03T06:36:33.285Z,1299.50
2023-12-03T06:37:33.263Z,1297.60
2023-12-03T06:38:33.245Z,1295.50
2023-12-03T06:39:33.333Z,1279.80
2023-12-03T06:40:33.225Z,1248.50
2023-12-03T06:41:33.236Z,1255.30
2023-12-03T06:42:33.245Z,1249.80
2023-12-03T06:43:33.212Z,1260.10
2023-12-03T06:44:38.661Z,1263.50
2023-12-03T06:45:34.269Z,1249.10
2023-12-03T06:46:33.161Z,1259.40
2023-12-03T06:47:33.196Z,1250.50
2023-12-03T06:48:33.201Z,1256.40
2023-12-03T06:49:33.749Z,1255.40
2023-12-03T06:50:33.114Z,1249.80
2023-12-03T06:51:33.126Z,1258.90
2023-12-03T06:52:33.097Z,1252.60
2023-12-03T06:53:33.169Z,1257.60
2023-12-03T06:54:33.304Z,1268.00
2023-12-03T06:55:33.085Z,1263.30
2023-12-03T06:56:33.057Z,1262.20
2023-12-03T06:57:33.201Z,1246.90
2023-12-03T06:58:33.049Z,1243.70
2023-12-03T06:59:33.103Z,1244.10
2023-12-03T07:00:33.058Z,1251.40
2023-12-03T07:01:34.840Z,1249.10
2023-12-03T07:02:32.989Z,1243.10
2023-12-03T07:03:33.072Z,1246.00
2023-12-03T07:04:33.084Z,1256.80
2023-12-03T07:05:32.965Z,1251.60
2023-12-03T07:06:33.073Z,1287.40
2023-12-03T07:07:32.986Z,1289.00
2023-12-03T07:08:32.933Z,1288.50
2023-12-03T07:09:38.247Z,1287.80
2023-12-03T07:10:32.895Z,1281.90
2023-12-03T07:11:32.891Z,1291.90
2023-12-03T07:12:32.967Z,1276.40
2023-12-03T07:13:32.882Z,1289.00
2023-12-03T07:14:32.881Z,1286.40
2023-12-03T07:15:32.906Z,1292.30
2023-12-03T07:16:32.873Z,1292.60
2023-12-03T07:17:32.859Z,1296.50
2023-12-03T07:18:32.837Z,1289.00
2023-12-03T07:19:32.856Z,1288.40
2023-12-03T07:20:32.814Z,1290.90
2023-12-03T07:21:32.834Z,1294.40
2023-12-03T07:22:32.761Z,1284.60
2023-12-03T07:23:32.761Z,1299.60
2023-12-03T07:24:32.795Z,1294.20
2023-12-03T07:25:32.730Z,1277.20
2023-12-03T07:26:32.742Z,1284.80
2023-12-03T07:27:32.725Z,1289.10
2023-12-03T07:28:32.712Z,1298.20
2023-12-03T07:29:32.697Z,1287.00
2023-12-03T07:30:32.720Z,1291.20
2023-12-03T07:31:32.697Z,1281.10
2023-12-03T07:32:32.698Z,1283.00
2023-12-03T07:33:32.851Z,1280.40
2023-12-03T07:34:32.724Z,1283.40
2023-12-03T07:35:32.653Z,1285.00
2023-12-03T07:36:32.643Z,1283.70
2023-12-03T07:37:32.606Z,1287.30
2023-12-03T07:38:32.591Z,1285.80
2023-12-03T07:39:32.640Z,1275.00
2023-12-03T07:40:32.587Z,1281.90
2023-12-03T07:41:32.592Z,1282.70
2023-12-03T07:42:32.600Z,1273.70
2023-12-03T07:43:32.546Z,1279.70
2023-12-03T07:44:32.558Z,1268.00
2023-12-03T07:45:32.582Z,1247.00
2023-12-03T07:46:32.508Z,1244.20
2023-12-03T07:47:32.574Z,1244.10
2023-12-03T07:48:32.517Z,1243.40
2023-12-03T07:49:32.521Z,1241.50
2023-12-03T07:50:32.458Z,1243.40
2023-12-03T07:51:32.563Z,1247.10
2023-12-03T07:52:32.440Z,1257.00
2023-12-03T07:53:32.423Z,1254.70
2023-12-03T07:54:32.474Z,1258.80
2023-12-03T07:55:32.406Z,1240.30
2023-12-03T07:56:32.401Z,1241.90
2023-12-03T07:57:32.404Z,1246.50
2023-12-03T07:58:32.385Z,1240.40
2023-12-03T07:59:32.439Z,1231.20
2023-12-03T08:00:32.426Z,1230.90
2023-12-03T08:01:32.359Z,1243.20
2023-12-03T08:02:32.340Z,1244.00
2023-12-03T08:03:32.419Z,1237.60
2023-12-03T08:04:32.340Z,1248.60
2023-12-03T08:06:43.191Z,1059.30
2023-12-03T08:07:43.175Z,1171.30
2023-12-03T08:08:43.005Z,1259.50
2023-12-03T08:09:42.979Z,1289.90
2023-12-03T08:10:42.966Z,1316.80
2023-12-03T08:11:42.955Z,1320.60
2023-12-03T08:12:43.017Z,1319.10
2023-12-03T08:13:42.943Z,1374.60
2023-12-03T08:14:42.924Z,1410.10
2023-12-03T08:15:42.940Z,1389.90
2023-12-03T08:16:42.901Z,1403.00
2023-12-03T08:17:42.930Z,1399.00
2023-12-03T08:18:43.178Z,1407.70
2023-12-03T08:19:42.929Z,1415.10
2023-12-03T08:20:42.860Z,1409.00
2023-12-03T08:21:42.888Z,1406.40
2023-12-03T08:22:42.857Z,1411.20
2023-12-03T08:23:42.838Z,1417.60
2023-12-03T08:24:42.830Z,1412.80
2023-12-03T08:25:42.824Z,1411.00
2023-12-03T08:26:42.810Z,1415.50
2023-12-03T08:27:42.821Z,1412.80
2023-12-03T08:28:42.766Z,1412.40
2023-12-03T08:29:42.779Z,1404.30
2023-12-03T08:30:42.801Z,1411.00
2023-12-03T08:31:42.750Z,1406.30
2023-12-03T08:32:42.760Z,1413.80
2023-12-03T08:33:42.790Z,1414.40
2023-12-03T08:34:42.779Z,1401.20
2023-12-03T08:35:42.705Z,1405.60
2023-12-03T08:36:42.707Z,1392.90
2023-12-03T08:37:42.671Z,1330.10
2023-12-03T08:38:42.666Z,1294.40
2023-12-03T08:39:42.683Z,1279.30
2023-12-03T08:40:42.648Z,1289.40
2023-12-03T08:41:42.635Z,1289.00
2023-12-03T08:42:42.648Z,1287.50
2023-12-03T08:43:42.607Z,1281.20
2023-12-03T08:44:42.599Z,1271.20
2023-12-03T08:45:42.669Z,1296.10
2023-12-03T08:46:42.572Z,1292.60
2023-12-03T08:47:42.606Z,1257.20
2023-12-03T08:48:42.609Z,1262.10
2023-12-03T08:49:42.605Z,1304.20
2023-12-03T08:50:42.563Z,1286.10
2023-12-03T08:51:42.545Z,1265.70
2023-12-03T08:52:42.498Z,1267.30
2023-12-03T08:53:42.492Z,1277.20
2023-12-03T08:54:42.508Z,1264.70
2023-12-03T08:55:42.497Z,1241.60
2023-12-03T08:56:42.752Z,1260.10
2023-12-03T08:57:42.490Z,1269.50
2023-12-03T08:58:42.441Z,1274.40
2023-12-03T08:59:42.443Z,1294.50
2023-12-03T09:01:53.762Z,1026.80
2023-12-03T09:02:53.733Z,1198.30
2023-12-03T09:03:53.729Z,1261.60
2023-12-03T09:04:53.712Z,1314.60
2023-12-03T09:05:53.724Z,1271.50
2023-12-03T09:06:53.721Z,1289.10
2023-12-03T09:07:53.634Z,1272.30
2023-12-03T09:08:53.649Z,1278.50
2023-12-03T09:09:53.667Z,1281.10
2023-12-03T09:10:53.623Z,1274.60
2023-12-03T09:11:53.596Z,1302.20
2023-12-03T09:12:53.755Z,1254.20
2023-12-03T09:13:53.585Z,1268.00
2023-12-03T09:14:53.563Z,1293.80
2023-12-03T09:15:53.594Z,1276.60
2023-12-03T09:16:53.567Z,1252.20
2023-12-03T09:17:53.579Z,1270.30
2023-12-03T09:18:53.614Z,1288.00
2023-12-03T09:19:53.527Z,1256.30
2023-12-03T09:20:53.533Z,1258.30
2023-12-03T09:21:53.584Z,1259.20
2023-12-03T09:22:53.918Z,1254.90
2023-12-03T09:23:53.469Z,1250.40
2023-12-03T09:24:53.538Z,1268.30
2023-12-03T09:25:53.435Z,1282.40
2023-12-03T09:26:53.430Z,1264.50
2023-12-03T09:27:53.459Z,1246.40
2023-12-03T09:28:53.407Z,1240.60
2023-12-03T09:29:53.397Z,1233.00
2023-12-03T09:30:53.407Z,1226.40
2023-12-03T09:31:56.746Z,1232.00
2023-12-03T09:32:53.425Z,1247.20
2023-12-03T09:33:53.420Z,1237.10
2023-12-03T09:34:53.342Z,1236.40
2023-12-03T09:35:53.327Z,1237.40
2023-12-03T09:36:53.352Z,1238.00
2023-12-03T09:37:53.341Z,1226.80
2023-12-03T09:38:53.315Z,1248.10
2023-12-03T09:39:53.297Z,1271.90
2023-12-03T09:40:53.267Z,1260.10
2023-12-03T09:41:53.289Z,1261.60
2023-12-03T09:42:53.301Z,1311.50
2023-12-03T09:43:53.249Z,1249.70
2023-12-03T09:44:53.232Z,1294.90
2023-12-03T09:45:53.240Z,1308.70
2023-12-03T09:46:53.214Z,1271.80
2023-12-03T09:47:53.254Z,1256.70
2023-12-03T09:48:53.225Z,1290.80
2023-12-03T09:49:53.172Z,1323.30
2023-12-03T09:50:53.174Z,1276.40
2023-12-03T09:51:53.184Z,1283.20
2023-12-03T09:52:53.139Z,1340.60
2023-12-03T09:53:53.145Z,1274.90
2023-12-03T09:54:53.175Z,1294.60
2023-12-03T09:55:53.129Z,1300.20
2023-12-03T09:56:53.102Z,1315.80
2023-12-03T09:57:53.128Z,1298.50
2023-12-03T09:58:53.074Z,1263.50
2023-12-03T09:59:53.070Z,1322.30
2023-12-03T10:00:53.125Z,1279.00
2023-12-03T10:01:53.057Z,1270.50
2023-12-03T10:02:53.023Z,1274.60
2023-12-03T10:03:53.089Z,1304.40
2023-12-03T10:04:53.080Z,1297.70
2023-12-03T10:05:53.084Z,1273.00
2023-12-03T10:06:53.005Z,1286.10
2023-12-03T10:07:52.987Z,1280.30
2023-12-03T10:08:52.962Z,1271.50
2023-12-03T10:09:53.105Z,1310.30
2023-12-03T10:10:52.939Z,1286.10
2023-12-03T10:11:52.930Z,1271.20
2023-12-03T10:12:52.970Z,1269.00
2023-12-03T10:13:52.920Z,1339.10
2023-12-03T10:14:52.913Z,1272.40
2023-12-03T10:15:52.914Z,1301.60
2023-12-03T10:16:52.871Z,1317.40
2023-12-03T10:17:52.907Z,1307.70
2023-12-03T10:18:53.017Z,1300.60
2023-12-03T10:19:52.855Z,1307.60
2023-12-03T10:20:52.831Z,1286.30
2023-12-03T10:21:52.875Z,1290.80
2023-12-03T10:22:52.813Z,1265.30
2023-12-03T10:23:52.806Z,1303.40
2023-12-03T10:24:52.821Z,1308.00
2023-12-03T10:25:52.793Z,1294.30
2023-12-03T10:26:52.790Z,1297.00
2023-12-03T10:27:52.841Z,1301.80
2023-12-03T10:28:52.754Z,1274.10
2023-12-03T10:29:52.728Z,1334.10
2023-12-03T10:30:52.746Z,1281.50
2023-12-03T10:31:52.703Z,1280.70
2023-12-03T10:32:52.805Z,1345.90
2023-12-03T10:33:52.785Z,1251.00
2023-12-03T10:34:52.723Z,1244.00
2023-12-03T10:35:52.663Z,1326.40
2023-12-03T10:36:52.681Z,1256.10
2023-12-03T10:37:52.858Z,1306.00
2023-12-03T10:38:52.652Z,1269.20
2023-12-03T10:39:52.633Z,1283.50
2023-12-03T10:40:52.612Z,1346.10
2023-12-03T10:41:52.629Z,1254.80
2023-12-03T10:42:52.674Z,1317.20
2023-12-03T10:43:52.578Z,1254.20
2023-12-03T10:44:52.557Z,1337.60
2023-12-03T10:45:52.581Z,1324.10
2023-12-03T10:46:52.536Z,1288.40
2023-12-03T10:47:52.566Z,1340.00
2023-12-03T10:48:52.569Z,1288.50
2023-12-03T10:49:52.549Z,1282.60
2023-12-03T10:50:52.490Z,1276.10
2023-12-03T10:51:52.484Z,1335.60
2023-12-03T10:52:52.480Z,1342.50
2023-12-03T10:53:52.473Z,1264.30
2023-12-03T10:54:52.560Z,1312.70
2023-12-03T10:55:52.434Z,1345.60
2023-12-03T10:56:52.444Z,1243.30
2023-12-03T10:57:52.862Z,1331.40
2023-12-03T10:58:52.413Z,1345.00
2023-12-03T10:59:52.418Z,1328.00
2023-12-03T11:00:52.468Z,1360.10
2023-12-03T11:01:52.465Z,1246.60
2023-12-03T11:02:53.756Z,1319.60
2023-12-03T11:03:52.421Z,1348.40
2023-12-03T11:04:52.374Z,1283.50
2023-12-03T11:05:52.335Z,1335.30
2023-12-03T11:06:52.369Z,1257.00
2023-12-03T11:07:52.306Z,1329.40
2023-12-03T11:08:52.296Z,1341.90
2023-12-03T11:09:53.153Z,1269.20
2023-12-03T11:10:52.292Z,1331.60
2023-12-03T11:11:52.290Z,1347.10
2023-12-03T11:12:52.340Z,1297.10
2023-12-03T11:13:52.260Z,1333.50
2023-12-03T11:14:52.229Z,1352.10
2023-12-03T11:15:52.290Z,1231.40
2023-12-03T11:16:52.276Z,1317.50
2023-12-03T11:17:52.255Z,1330.20
2023-12-03T11:18:52.268Z,1322.50
2023-12-03T11:19:55.748Z,1319.00
2023-12-03T11:20:52.195Z,1326.50
2023-12-03T11:21:52.166Z,1322.90
2023-12-03T11:22:52.146Z,1322.40
2023-12-03T11:23:52.127Z,1318.60
2023-12-03T11:24:52.246Z,1326.30
2023-12-03T11:25:52.133Z,1318.10
2023-12-03T11:26:52.158Z,1305.40
2023-12-03T11:27:52.137Z,1299.40
2023-12-03T11:28:53.899Z,1312.70
2023-12-03T11:29:52.109Z,1328.90
2023-12-03T11:30:52.076Z,1330.30
2023-12-03T11:31:52.058Z,1343.30
2023-12-03T11:32:52.085Z,1367.60
2023-12-03T11:33:52.289Z,1375.30
2023-12-03T11:34:52.090Z,1401.10
2023-12-03T11:35:52.012Z,1400.10
2023-12-03T11:36:55.594Z,1387.90
2023-12-03T11:37:52.975Z,1386.30
2023-12-03T11:38:51.980Z,1429.10
2023-12-03T11:39:51.990Z,1405.40
2023-12-03T11:40:51.986Z,1393.00
2023-12-03T11:41:51.931Z,1381.10
2023-12-03T11:42:52.133Z,1336.10
2023-12-03T11:43:51.921Z,1446.60
2023-12-03T11:44:51.905Z,1444.70
2023-12-03T11:45:51.980Z,1380.90
2023-12-03T11:46:52.002Z,1253.10
2023-12-03T11:47:51.960Z,1264.10
2023-12-03T11:48:52.020Z,1286.40
2023-12-03T11:49:51.884Z,1390.90
2023-12-03T11:50:51.845Z,1366.40
2023-12-03T11:51:51.851Z,1357.90
2023-12-03T11:52:51.825Z,1407.80
2023-12-03T11:53:51.824Z,1437.60
2023-12-03T11:54:51.837Z,1485.30
2023-12-03T11:55:52.132Z,1367.20
2023-12-03T11:56:51.781Z,1531.70
2023-12-03T11:57:51.794Z,1350.10
2023-12-03T11:58:51.749Z,1490.50
2023-12-03T11:59:51.736Z,1382.30
2023-12-03T12:00:51.772Z,1628.90
2023-12-03T12:01:51.762Z,1611.70
2023-12-03T12:02:51.749Z,1656.90
2023-12-03T12:03:51.737Z,1507.70
2023-12-03T12:04:51.692Z,1620.90
2023-12-03T12:05:51.681Z,1609.10
2023-12-03T12:06:51.716Z,1510.70
2023-12-03T12:07:51.670Z,1415.60